sensor_id;sensor_type;location;lat;lon;timestamp;pressure;altitude;pressure_sealevel;temperature;humidity
23170;BME280;11753;43.144;24.714;2023-04-10T00:00:14;99863.19;;;9.25;91.68
23170;BME280;11753;43.144;24.714;2023-04-10T00:01:15;99868.31;;;9.26;91.53
23170;BME280;11753;43.144;24.714;2023-04-10T00:02:17;99865.81;;;9.25;91.57
23170;BME280;11753;43.144;24.714;2023-04-10T00:03:18;99865.84;;;9.15;91.79
23170;BME280;11753;43.144;24.714;2023-04-10T00:04:18;99865.84;;;9.15;91.72
23170;BME280;11753;43.144;24.714;2023-04-10T00:05:19;99859.72;;;9.05;91.72
23170;BME280;11753;43.144;24.714;2023-04-10T00:06:20;99858.06;;;9.04;91.81
23170;BME280;11753;43.144;24.714;2023-04-10T00:07:21;99856.16;;;8.96;91.70
23170;BME280;11753;43.144;24.714;2023-04-10T00:08:23;99859.31;;;9.00;91.77
23170;BME280;11753;43.144;24.714;2023-04-10T00:09:24;99855.03;;;8.99;91.33
23170;BME280;11753;43.144;24.714;2023-04-10T00:10:25;99854.50;;;8.95;91.69
23170;BME280;11753;43.144;24.714;2023-04-10T00:11:28;99856.69;;;9.00;91.65
23170;BME280;11753;43.144;24.714;2023-04-10T00:12:29;99855.31;;;9.05;91.59
23170;BME280;11753;43.144;24.714;2023-04-10T00:13:31;99850.47;;;8.91;92.21
23170;BME280;11753;43.144;24.714;2023-04-10T00:14:32;99852.25;;;8.91;92.34
23170;BME280;11753;43.144;24.714;2023-04-10T00:15:33;99845.06;;;8.93;92.33
23170;BME280;11753;43.144;24.714;2023-04-10T00:16:34;99853.38;;;8.88;92.64
23170;BME280;11753;43.144;24.714;2023-04-10T00:17:35;99846.75;;;8.94;92.24
23170;BME280;11753;43.144;24.714;2023-04-10T00:18:36;99850.47;;;8.81;92.56
23170;BME280;11753;43.144;24.714;2023-04-10T00:19:37;99851.44;;;8.80;93.00
23170;BME280;11753;43.144;24.714;2023-04-10T00:20:38;99851.72;;;8.87;92.67
23170;BME280;11753;43.144;24.714;2023-04-10T00:21:38;99846.31;;;8.89;92.83
23170;BME280;11753;43.144;24.714;2023-04-10T00:22:39;99849.22;;;8.86;92.97
23170;BME280;11753;43.144;24.714;2023-04-10T00:23:41;99847.69;;;8.93;92.92
23170;BME280;11753;43.144;24.714;2023-04-10T00:24:43;99842.88;;;8.98;92.92
23170;BME280;11753;43.144;24.714;2023-04-10T00:25:44;99854.19;;;8.98;92.80
23170;BME280;11753;43.144;24.714;2023-04-10T00:26:46;99847.28;;;8.97;92.78
23170;BME280;11753;43.144;24.714;2023-04-10T00:27:48;99843.16;;;8.95;93.03
23170;BME280;11753;43.144;24.714;2023-04-10T00:28:49;99842.88;;;8.98;92.77
23170;BME280;11753;43.144;24.714;2023-04-10T00:29:50;99842.63;;;9.01;92.86
23170;BME280;11753;43.144;24.714;2023-04-10T00:30:51;99843.69;;;8.98;92.75
23170;BME280;11753;43.144;24.714;2023-04-10T00:31:52;99834.31;;;8.86;93.51
23170;BME280;11753;43.144;24.714;2023-04-10T00:32:53;99843.97;;;8.95;93.25
23170;BME280;11753;43.144;24.714;2023-04-10T00:33:54;99842.03;;;8.97;93.22
23170;BME280;11753;43.144;24.714;2023-04-10T00:34:54;99837.91;;;8.95;93.25
23170;BME280;11753;43.144;24.714;2023-04-10T00:35:55;99843.69;;;8.89;93.68
23170;BME280;11753;43.144;24.714;2023-04-10T00:36:58;99837.06;;;8.85;93.67
23170;BME280;11753;43.144;24.714;2023-04-10T00:37:58;99842.03;;;8.88;93.65
23170;BME280;11753;43.144;24.714;2023-04-10T00:38:59;99834.84;;;8.90;93.95
23170;BME280;11753;43.144;24.714;2023-04-10T00:40:00;99836.38;;;8.82;94.27
23170;BME280;11753;43.144;24.714;2023-04-10T00:41:01;99829.03;;;8.76;94.69
23170;BME280;11753;43.144;24.714;2023-04-10T00:42:02;99833.75;;;8.82;94.91
23170;BME280;11753;43.144;24.714;2023-04-10T00:43:03;99831.53;;;8.88;94.82
23170;BME280;11753;43.144;24.714;2023-04-10T00:44:04;99830.81;;;8.86;94.88
23170;BME280;11753;43.144;24.714;2023-04-10T00:45:06;99829.88;;;8.87;94.73
23170;BME280;11753;43.144;24.714;2023-04-10T00:46:07;99836.50;;;8.91;94.43
23170;BME280;11753;43.144;24.714;2023-04-10T00:47:08;99827.38;;;8.75;95.22
23170;BME280;11753;43.144;24.714;2023-04-10T00:48:09;99823.75;;;8.57;96.74
23170;BME280;11753;43.144;24.714;2023-04-10T00:49:10;99826.94;;;8.61;96.81
23170;BME280;11753;43.144;24.714;2023-04-10T00:50:11;99828.06;;;8.68;96.75
23170;BME280;11753;43.144;24.714;2023-04-10T00:51:12;99825.28;;;8.69;97.12
23170;BME280;11753;43.144;24.714;2023-04-10T00:52:12;99826.84;;;8.72;96.99
23170;BME280;11753;43.144;24.714;2023-04-10T00:53:13;99828.59;;;8.71;96.85
23170;BME280;11753;43.144;24.714;2023-04-10T00:54:15;99820.19;;;8.77;96.80
23170;BME280;11753;43.144;24.714;2023-04-10T00:55:16;99833.59;;;8.84;96.54
23170;BME280;11753;43.144;24.714;2023-04-10T00:56:18;99827.81;;;8.90;96.04
23170;BME280;11753;43.144;24.714;2023-04-10T00:57:20;99825.75;;;8.94;95.86
23170;BME280;11753;43.144;24.714;2023-04-10T00:58:21;99831.00;;;8.94;95.68
23170;BME280;11753;43.144;24.714;2023-04-10T00:59:22;99825.47;;;8.97;95.49
23170;BME280;11753;43.144;24.714;2023-04-10T01:00:23;99831.00;;;8.94;95.44
23170;BME280;11753;43.144;24.714;2023-04-10T01:01:24;99824.63;;;9.06;95.08
23170;BME280;11753;43.144;24.714;2023-04-10T01:02:25;99826.56;;;9.04;94.90
23170;BME280;11753;43.144;24.714;2023-04-10T01:03:26;99830.31;;;9.01;94.88
23170;BME280;11753;43.144;24.714;2023-04-10T01:04:28;99826.28;;;9.07;94.61
23170;BME280;11753;43.144;24.714;2023-04-10T01:05:34;99824.38;;;9.09;94.42
23170;BME280;11753;43.144;24.714;2023-04-10T01:06:58;99823.66;;;9.07;94.25
23170;BME280;11753;43.144;24.714;2023-04-10T01:11:09;99813.59;;;9.02;93.95
23170;BME280;11753;43.144;24.714;2023-04-10T01:12:32;99815.78;;;9.07;93.96
23170;BME280;11753;43.144;24.714;2023-04-10T01:13:54;99809.84;;;9.05;93.91
23170;BME280;11753;43.144;24.714;2023-04-10T01:15:18;99820.09;;;9.08;93.86
23170;BME280;11753;43.144;24.714;2023-04-10T01:16:49;99816.34;;;9.01;93.89
23170;BME280;11753;43.144;24.714;2023-04-10T01:19:14;99804.16;;;9.00;94.14
23170;BME280;11753;43.144;24.714;2023-04-10T01:20:27;99816.34;;;9.01;94.28
23170;BME280;11753;43.144;24.714;2023-04-10T01:21:30;99810.69;;;8.96;94.45
23170;BME280;11753;43.144;24.714;2023-04-10T01:23:03;99811.38;;;8.98;94.41
23170;BME280;11753;43.144;24.714;2023-04-10T01:24:20;99811.09;;;9.01;94.22
23170;BME280;11753;43.144;24.714;2023-04-10T01:27:08;99805.03;;;9.00;94.19
23170;BME280;11753;43.144;24.714;2023-04-10T01:29:19;99818.41;;;8.97;94.39
23170;BME280;11753;43.144;24.714;2023-04-10T01:30:22;99807.75;;;8.99;94.29
23170;BME280;11753;43.144;24.714;2023-04-10T01:31:48;99816.59;;;8.98;94.35
23170;BME280;11753;43.144;24.714;2023-04-10T01:32:52;99817.44;;;8.98;94.38
23170;BME280;11753;43.144;24.714;2023-04-10T01:34:03;99813.00;;;8.99;94.31
23170;BME280;11753;43.144;24.714;2023-04-10T01:35:07;99823.25;;;9.02;94.13
23170;BME280;11753;43.144;24.714;2023-04-10T01:36:09;99816.34;;;9.01;93.98
23170;BME280;11753;43.144;24.714;2023-04-10T01:37:30;99811.94;;;9.01;94.03
23170;BME280;11753;43.144;24.714;2023-04-10T01:38:34;99819.91;;;9.00;93.96
23170;BME280;11753;43.144;24.714;2023-04-10T01:39:38;99817.44;;;8.98;93.84
23170;BME280;11753;43.144;24.714;2023-04-10T01:40:43;99821.59;;;9.01;93.74
23170;BME280;11753;43.144;24.714;2023-04-10T01:41:51;99816.22;;;9.02;93.71
23170;BME280;11753;43.144;24.714;2023-04-10T01:42:55;99812.34;;;8.97;93.73
23170;BME280;11753;43.144;24.714;2023-04-10T01:43:57;99819.78;;;8.92;93.84
23170;BME280;11753;43.144;24.714;2023-04-10T01:45:00;99817.44;;;8.89;94.10
23170;BME280;11753;43.144;24.714;2023-04-10T01:46:02;99816.47;;;8.90;94.27
23170;BME280;11753;43.144;24.714;2023-04-10T01:47:05;99814.28;;;8.95;94.09
23170;BME280;11753;43.144;24.714;2023-04-10T01:48:07;99814.97;;;8.97;93.94
23170;BME280;11753;43.144;24.714;2023-04-10T01:49:09;99822.41;;;8.92;94.01
23170;BME280;11753;43.144;24.714;2023-04-10T01:50:10;99816.91;;;8.95;93.68
23170;BME280;11753;43.144;24.714;2023-04-10T01:51:14;99823.94;;;8.94;93.74
23170;BME280;11753;43.144;24.714;2023-04-10T01:52:17;99821.72;;;8.90;93.64
23170;BME280;11753;43.144;24.714;2023-04-10T01:53:19;99818.41;;;8.88;93.75
23170;BME280;11753;43.144;24.714;2023-04-10T01:54:21;99820.31;;;8.86;93.73
23170;BME280;11753;43.144;24.714;2023-04-10T01:55:23;99822.13;;;8.85;93.99
23170;BME280;11753;43.144;24.714;2023-04-10T01:56:25;99821.03;;;8.88;93.64
23170;BME280;11753;43.144;24.714;2023-04-10T01:57:29;99816.06;;;8.85;93.61
23170;BME280;11753;43.144;24.714;2023-04-10T01:58:31;99821.03;;;8.88;93.66
23170;BME280;11753;43.144;24.714;2023-04-10T01:59:32;99822.41;;;8.82;93.76
23170;BME280;11753;43.144;24.714;2023-04-10T02:00:38;99821.97;;;8.77;93.88
23170;BME280;11753;43.144;24.714;2023-04-10T02:01:39;99823.63;;;8.78;94.02
23170;BME280;11753;43.144;24.714;2023-04-10T02:02:41;99818.28;;;8.79;93.94
23170;BME280;11753;43.144;24.714;2023-04-10T02:03:42;99820.47;;;8.74;94.15
23170;BME280;11753;43.144;24.714;2023-04-10T02:04:43;99815.22;;;8.74;94.25
23170;BME280;11753;43.144;24.714;2023-04-10T02:07:10;99821.84;;;8.78;93.85
23170;BME280;11753;43.144;24.714;2023-04-10T02:08:16;99817.16;;;8.82;93.66
23170;BME280;11753;43.144;24.714;2023-04-10T02:09:25;99814.25;;;8.75;93.91
23170;BME280;11753;43.144;24.714;2023-04-10T02:11:14;99814.53;;;8.72;94.12
23170;BME280;11753;43.144;24.714;2023-04-10T02:12:03;99810.22;;;8.71;94.03
23170;BME280;11753;43.144;24.714;2023-04-10T02:13:06;99811.63;;;8.66;94.03
23170;BME280;11753;43.144;24.714;2023-04-10T02:14:10;99812.47;;;8.66;94.28
23170;BME280;11753;43.144;24.714;2023-04-10T02:15:14;99813.53;;;8.64;94.16
23170;BME280;11753;43.144;24.714;2023-04-10T02:16:18;99816.31;;;8.62;94.37
23170;BME280;11753;43.144;24.714;2023-04-10T02:17:26;99816.31;;;8.62;94.61
23170;BME280;11753;43.144;24.714;2023-04-10T02:18:29;99807.75;;;8.50;94.57
23170;BME280;11753;43.144;24.714;2023-04-10T02:19:33;99815.03;;;8.47;94.65
23170;BME280;11753;43.144;24.714;2023-04-10T02:20:35;99810.19;;;8.42;94.86
23170;BME280;11753;43.144;24.714;2023-04-10T02:21:37;99812.69;;;8.44;95.02
23170;BME280;11753;43.144;24.714;2023-04-10T02:22:40;99817.13;;;8.43;95.26
23170;BME280;11753;43.144;24.714;2023-04-10T02:23:44;99815.03;;;8.47;95.20
23170;BME280;11753;43.144;24.714;2023-04-10T02:24:45;99811.00;;;8.43;95.25
23170;BME280;11753;43.144;24.714;2023-04-10T02:25:46;99817.66;;;8.47;95.20
23170;BME280;11753;43.144;24.714;2023-04-10T02:26:51;99817.38;;;8.40;95.42
23170;BME280;11753;43.144;24.714;2023-04-10T02:27:52;99817.94;;;8.44;95.28
23170;BME280;11753;43.144;24.714;2023-04-10T02:28:53;99811.16;;;8.41;95.11
23170;BME280;11753;43.144;24.714;2023-04-10T02:29:54;99812.69;;;8.44;95.11
23170;BME280;11753;43.144;24.714;2023-04-10T02:30:55;99814.34;;;8.45;95.05
23170;BME280;11753;43.144;24.714;2023-04-10T02:31:56;99814.59;;;8.42;95.01
23170;BME280;11753;43.144;24.714;2023-04-10T02:32:59;99809.88;;;8.36;95.01
23170;BME280;11753;43.144;24.714;2023-04-10T02:34:00;99808.66;;;8.40;95.10
23170;BME280;11753;43.144;24.714;2023-04-10T02:35:01;99812.25;;;8.39;95.18
23170;BME280;11753;43.144;24.714;2023-04-10T02:36:05;99817.75;;;8.36;95.18
23170;BME280;11753;43.144;24.714;2023-04-10T02:37:06;99810.75;;;8.36;95.08
23170;BME280;11753;43.144;24.714;2023-04-10T02:38:08;99820.38;;;8.36;95.30
23170;BME280;11753;43.144;24.714;2023-04-10T02:39:09;99810.13;;;8.33;94.77
23170;BME280;11753;43.144;24.714;2023-04-10T02:40:10;99818.53;;;8.26;95.15
23170;BME280;11753;43.144;24.714;2023-04-10T02:41:11;99805.44;;;8.26;95.10
23170;BME280;11753;43.144;24.714;2023-04-10T02:42:12;99813.16;;;8.28;95.23
23170;BME280;11753;43.144;24.714;2023-04-10T02:43:13;99811.78;;;8.24;95.45
23170;BME280;11753;43.144;24.714;2023-04-10T02:44:13;99818.97;;;8.22;95.59
23170;BME280;11753;43.144;24.714;2023-04-10T02:45:15;99816.72;;;8.17;95.58
23170;BME280;11753;43.144;24.714;2023-04-10T02:46:15;99816.44;;;8.11;95.92
23170;BME280;11753;43.144;24.714;2023-04-10T02:47:16;99816.03;;;8.15;95.69
23170;BME280;11753;43.144;24.714;2023-04-10T02:48:18;99810.78;;;8.15;95.70
23170;BME280;11753;43.144;24.714;2023-04-10T02:49:19;99811.19;;;8.20;95.45
23170;BME280;11753;43.144;24.714;2023-04-10T02:50:22;99808.41;;;8.12;95.64
23170;BME280;11753;43.144;24.714;2023-04-10T02:51:23;99808.41;;;8.12;95.72
23170;BME280;11753;43.144;24.714;2023-04-10T02:52:25;99804.13;;;8.02;95.94
23170;BME280;11753;43.144;24.714;2023-04-10T02:53:26;99806.59;;;8.03;95.99
23170;BME280;11753;43.144;24.714;2023-04-10T02:54:27;99808.63;;;7.99;96.19
23170;BME280;11753;43.144;24.714;2023-04-10T02:55:28;99809.47;;;8.00;96.40
23170;BME280;11753;43.144;24.714;2023-04-10T02:56:31;99809.47;;;8.00;96.25
23170;BME280;11753;43.144;24.714;2023-04-10T02:57:33;99810.19;;;8.02;96.26
23170;BME280;11753;43.144;24.714;2023-04-10T02:58:34;99811.69;;;8.05;96.12
23170;BME280;11753;43.144;24.714;2023-04-10T02:59:35;99803.97;;;8.03;95.88
23170;BME280;11753;43.144;24.714;2023-04-10T03:00:36;99814.72;;;8.00;95.98
23170;BME280;11753;43.144;24.714;2023-04-10T03:01:37;99811.41;;;7.98;96.07
23170;BME280;11753;43.144;24.714;2023-04-10T03:02:38;99806.44;;;7.95;96.22
23170;BME280;11753;43.144;24.714;2023-04-10T03:03:39;99807.41;;;7.94;96.38
23170;BME280;11753;43.144;24.714;2023-04-10T03:04:40;99814.13;;;7.87;96.36
23170;BME280;11753;43.144;24.714;2023-04-10T03:05:41;99808.88;;;7.87;96.53
23170;BME280;11753;43.144;24.714;2023-04-10T03:06:42;99805.84;;;7.91;96.44
23170;BME280;11753;43.144;24.714;2023-04-10T03:07:43;99810.78;;;7.85;96.53
23170;BME280;11753;43.144;24.714;2023-04-10T03:08:44;99807.19;;;7.86;96.63
23170;BME280;11753;43.144;24.714;2023-04-10T03:09:45;99804.16;;;7.81;96.72
23170;BME280;11753;43.144;24.714;2023-04-10T03:10:46;99808.81;;;7.77;97.00
23170;BME280;11753;43.144;24.714;2023-04-10T03:11:50;99804.81;;;7.73;97.22
23170;BME280;11753;43.144;24.714;2023-04-10T03:12:54;99809.53;;;7.79;97.03
23170;BME280;11753;43.144;24.714;2023-04-10T03:13:56;99807.31;;;7.75;97.09
23170;BME280;11753;43.144;24.714;2023-04-10T03:15:00;99812.81;;;7.71;97.30
23170;BME280;11753;43.144;24.714;2023-04-10T03:16:01;99807.84;;;7.78;97.15
23170;BME280;11753;43.144;24.714;2023-04-10T03:17:04;99806.09;;;7.79;97.09
23170;BME280;11753;43.144;24.714;2023-04-10T03:18:05;99812.03;;;7.81;96.90
23170;BME280;11753;43.144;24.714;2023-04-10T03:19:06;99812.91;;;7.70;97.16
23170;BME280;11753;43.144;24.714;2023-04-10T03:20:07;99813.25;;;7.77;96.93
23170;BME280;11753;43.144;24.714;2023-04-10T03:21:08;99817.91;;;7.73;97.15
23170;BME280;11753;43.144;24.714;2023-04-10T03:22:10;99812.50;;;7.65;97.44
23170;BME280;11753;43.144;24.714;2023-04-10T03:23:11;99813.34;;;7.65;97.45
23170;BME280;11753;43.144;24.714;2023-04-10T03:24:12;99820.91;;;7.68;97.58
23170;BME280;11753;43.144;24.714;2023-04-10T03:25:16;99812.38;;;7.66;97.24
23170;BME280;11753;43.144;24.714;2023-04-10T03:26:17;99819.13;;;7.69;97.12
23170;BME280;11753;43.144;24.714;2023-04-10T03:27:18;99822.84;;;7.66;97.26
23170;BME280;11753;43.144;24.714;2023-04-10T03:28:20;99823.31;;;7.71;97.20
23170;BME280;11753;43.144;24.714;2023-04-10T03:29:21;99810.44;;;7.68;96.94
23170;BME280;11753;43.144;24.714;2023-04-10T03:30:22;99815.94;;;7.65;96.96
23170;BME280;11753;43.144;24.714;2023-04-10T03:31:23;99812.63;;;7.63;97.15
23170;BME280;11753;43.144;24.714;2023-04-10T03:32:24;99815.38;;;7.62;97.34
23170;BME280;11753;43.144;24.714;2023-04-10T03:33:27;99819.78;;;7.61;97.45
23170;BME280;11753;43.144;24.714;2023-04-10T03:34:27;99823.09;;;7.63;97.54
23170;BME280;11753;43.144;24.714;2023-04-10T03:35:28;99825.59;;;7.65;97.13
23170;BME280;11753;43.144;24.714;2023-04-10T03:36:28;99820.59;;;7.62;97.25
23170;BME280;11753;43.144;24.714;2023-04-10T03:37:30;99824.50;;;7.67;97.15
23170;BME280;11753;43.144;24.714;2023-04-10T03:38:34;99813.56;;;7.62;96.86
23170;BME280;11753;43.144;24.714;2023-04-10T03:39:35;99818.13;;;7.60;96.99
23170;BME280;11753;43.144;24.714;2023-04-10T03:40:37;99817.28;;;7.60;97.12
23170;BME280;11753;43.144;24.714;2023-04-10T03:41:38;99818.25;;;7.59;97.18
23170;BME280;11753;43.144;24.714;2023-04-10T03:42:39;99831.69;;;7.65;97.04
23170;BME280;11753;43.144;24.714;2023-04-10T03:43:40;99828.34;;;7.63;96.98
23170;BME280;11753;43.144;24.714;2023-04-10T03:44:41;99826.94;;;7.59;96.87
23170;BME280;11753;43.144;24.714;2023-04-10T03:45:42;99819.47;;;7.55;96.97
23170;BME280;11753;43.144;24.714;2023-04-10T03:46:46;99827.19;;;7.56;97.05
23170;BME280;11753;43.144;24.714;2023-04-10T03:47:47;99829.94;;;7.55;97.37
23170;BME280;11753;43.144;24.714;2023-04-10T03:48:48;99831.72;;;7.54;97.19
23170;BME280;11753;43.144;24.714;2023-04-10T03:49:50;99828.00;;;7.57;97.01
23170;BME280;11753;43.144;24.714;2023-04-10T03:50:50;99833.16;;;7.58;96.97
23170;BME280;11753;43.144;24.714;2023-04-10T03:51:51;99835.63;;;7.60;96.80
23170;BME280;11753;43.144;24.714;2023-04-10T03:52:52;99837.16;;;7.62;96.90
23170;BME280;11753;43.144;24.714;2023-04-10T03:53:53;99839.78;;;7.62;96.78
23170;BME280;11753;43.144;24.714;2023-04-10T03:54:55;99835.50;;;7.61;96.72
23170;BME280;11753;43.144;24.714;2023-04-10T03:55:56;99829.94;;;7.55;96.59
23170;BME280;11753;43.144;24.714;2023-04-10T03:56:57;99834.81;;;7.59;96.42
23170;BME280;11753;43.144;24.714;2023-04-10T03:57:58;99836.28;;;7.52;96.46
23170;BME280;11753;43.144;24.714;2023-04-10T03:59:00;99839.13;;;7.49;96.58
23170;BME280;11753;43.144;24.714;2023-04-10T04:00:00;99828.34;;;7.42;96.78
23170;BME280;11753;43.144;24.714;2023-04-10T04:01:02;99842.03;;;7.46;96.93
23170;BME280;11753;43.144;24.714;2023-04-10T04:02:03;99844.78;;;7.44;96.81
23170;BME280;11753;43.144;24.714;2023-04-10T04:03:04;99845.94;;;7.52;96.09
23170;BME280;11753;43.144;24.714;2023-04-10T04:04:05;99840.38;;;7.45;96.27
23170;BME280;11753;43.144;24.714;2023-04-10T04:05:06;99843.94;;;7.44;96.47
23170;BME280;11753;43.144;24.714;2023-04-10T04:06:07;99845.47;;;7.47;96.59
23170;BME280;11753;43.144;24.714;2023-04-10T04:07:08;99847.00;;;7.49;96.71
23170;BME280;11753;43.144;24.714;2023-04-10T04:08:09;99836.78;;;7.46;96.67
23170;BME280;11753;43.144;24.714;2023-04-10T04:09:12;99850.44;;;7.50;96.86
23170;BME280;11753;43.144;24.714;2023-04-10T04:10:13;99848.22;;;7.45;96.97
23170;BME280;11753;43.144;24.714;2023-04-10T04:11:15;99854.16;;;7.47;97.14
23170;BME280;11753;43.144;24.714;2023-04-10T04:12:16;99848.03;;;7.37;97.65
23170;BME280;11753;43.144;24.714;2023-04-10T04:13:17;99849.03;;;7.25;98.24
23170;BME280;11753;43.144;24.714;2023-04-10T04:14:21;99852.13;;;7.30;98.45
23170;BME280;11753;43.144;24.714;2023-04-10T04:15:22;99852.56;;;7.35;98.17
23170;BME280;11753;43.144;24.714;2023-04-10T04:16:23;99856.09;;;7.45;97.99
23170;BME280;11753;43.144;24.714;2023-04-10T04:17:24;99853.91;;;7.50;97.58
23170;BME280;11753;43.144;24.714;2023-04-10T04:18:24;99857.38;;;7.51;97.51
23170;BME280;11753;43.144;24.714;2023-04-10T04:19:25;99855.56;;;7.51;97.39
23170;BME280;11753;43.144;24.714;2023-04-10T04:20:26;99851.50;;;7.58;97.10
23170;BME280;11753;43.144;24.714;2023-04-10T04:21:27;99856.97;;;7.55;97.00
23170;BME280;11753;43.144;24.714;2023-04-10T04:22:28;99856.84;;;7.57;96.89
23170;BME280;11753;43.144;24.714;2023-04-10T04:23:29;99850.75;;;7.56;97.03
23170;BME280;11753;43.144;24.714;2023-04-10T04:24:30;99856.47;;;7.61;96.85
23170;BME280;11753;43.144;24.714;2023-04-10T04:25:31;99856.22;;;7.64;96.89
23170;BME280;11753;43.144;24.714;2023-04-10T04:26:32;99858.13;;;7.62;96.95
23170;BME280;11753;43.144;24.714;2023-04-10T04:27:33;99860.38;;;7.67;96.92
23170;BME280;11753;43.144;24.714;2023-04-10T04:28:34;99849.28;;;7.63;97.11
23170;BME280;11753;43.144;24.714;2023-04-10T04:29:35;99858.72;;;7.66;97.16
23170;BME280;11753;43.144;24.714;2023-04-10T04:30:36;99859.03;;;7.72;97.23
23170;BME280;11753;43.144;24.714;2023-04-10T04:31:39;99852.81;;;7.73;96.92
23170;BME280;11753;43.144;24.714;2023-04-10T04:32:40;99856.31;;;7.84;96.68
23170;BME280;11753;43.144;24.714;2023-04-10T04:33:40;99866.00;;;7.93;96.56
23170;BME280;11753;43.144;24.714;2023-04-10T04:34:42;99860.84;;;7.82;96.32
23170;BME280;11753;43.144;24.714;2023-04-10T04:35:43;99862.25;;;7.86;96.10
23170;BME280;11753;43.144;24.714;2023-04-10T04:36:44;99864.13;;;7.74;96.32
23170;BME280;11753;43.144;24.714;2023-04-10T04:37:45;99861.81;;;7.81;96.07
23170;BME280;11753;43.144;24.714;2023-04-10T04:38:46;99861.31;;;7.87;96.40
23170;BME280;11753;43.144;24.714;2023-04-10T04:39:47;99862.69;;;7.91;96.42
23170;BME280;11753;43.144;24.714;2023-04-10T04:40:48;99863.84;;;7.98;96.27
23170;BME280;11753;43.144;24.714;2023-04-10T04:41:49;99871.88;;;8.06;95.93
23170;BME280;11753;43.144;24.714;2023-04-10T04:42:50;99874.25;;;8.09;95.72
23170;BME280;11753;43.144;24.714;2023-04-10T04:43:51;99871.34;;;8.12;95.65
23170;BME280;11753;43.144;24.714;2023-04-10T04:44:52;99869.41;;;8.14;95.32
23170;BME280;11753;43.144;24.714;2023-04-10T04:45:53;99871.97;;;8.25;94.61
23170;BME280;11753;43.144;24.714;2023-04-10T04:46:54;99869.19;;;8.27;94.18
23170;BME280;11753;43.144;24.714;2023-04-10T04:47:54;99861.78;;;8.32;94.05
23170;BME280;11753;43.144;24.714;2023-04-10T04:48:55;99875.22;;;8.39;93.93
23170;BME280;11753;43.144;24.714;2023-04-10T04:49:56;99870.66;;;8.41;93.29
23170;BME280;11753;43.144;24.714;2023-04-10T04:50:57;99867.59;;;8.36;93.12
23170;BME280;11753;43.144;24.714;2023-04-10T04:51:58;99868.72;;;8.43;92.88
23170;BME280;11753;43.144;24.714;2023-04-10T04:52:59;99869.84;;;8.50;92.74
23170;BME280;11753;43.144;24.714;2023-04-10T04:54:00;99874.56;;;8.56;92.68
23170;BME280;11753;43.144;24.714;2023-04-10T04:55:01;99873.06;;;8.63;92.63
23170;BME280;11753;43.144;24.714;2023-04-10T04:56:02;99875.59;;;8.65;92.28
23170;BME280;11753;43.144;24.714;2023-04-10T04:57:03;99863.44;;;8.73;91.92
23170;BME280;11753;43.144;24.714;2023-04-10T04:58:04;99863.00;;;8.78;91.47
23170;BME280;11753;43.144;24.714;2023-04-10T04:59:05;99863.19;;;8.86;91.35
23170;BME280;11753;43.144;24.714;2023-04-10T05:00:07;99869.41;;;8.95;90.93
23170;BME280;11753;43.144;24.714;2023-04-10T05:01:08;99868.88;;;9.01;90.69
23170;BME280;11753;43.144;24.714;2023-04-10T05:02:09;99874.91;;;8.92;90.37
23170;BME280;11753;43.144;24.714;2023-04-10T05:03:09;99873.00;;;9.03;90.34
23170;BME280;11753;43.144;24.714;2023-04-10T05:04:10;99871.91;;;9.16;89.66
23170;BME280;11753;43.144;24.714;2023-04-10T05:05:10;99872.19;;;9.22;89.42
23170;BME280;11753;43.144;24.714;2023-04-10T05:06:11;99876.88;;;9.28;89.05
23170;BME280;11753;43.144;24.714;2023-04-10T05:07:13;99869.69;;;9.30;88.74
23170;BME280;11753;43.144;24.714;2023-04-10T05:08:15;99867.75;;;9.32;88.67
23170;BME280;11753;43.144;24.714;2023-04-10T05:09:16;99868.31;;;9.46;88.24
23170;BME280;11753;43.144;24.714;2023-04-10T05:10:17;99871.34;;;9.41;87.42
23170;BME280;11753;43.144;24.714;2023-04-10T05:11:18;99868.97;;;9.48;87.46
23170;BME280;11753;43.144;24.714;2023-04-10T05:12:19;99864.41;;;9.50;87.33
23170;BME280;11753;43.144;24.714;2023-04-10T05:13:20;99871.06;;;9.54;87.10
23170;BME280;11753;43.144;24.714;2023-04-10T05:14:21;99870.75;;;9.57;87.05
23170;BME280;11753;43.144;24.714;2023-04-10T05:15:22;99867.03;;;9.59;87.19
23170;BME280;11753;43.144;24.714;2023-04-10T05:16:23;99861.78;;;9.59;87.21
23170;BME280;11753;43.144;24.714;2023-04-10T05:17:25;99864.94;;;9.63;87.00
23170;BME280;11753;43.144;24.714;2023-04-10T05:18:26;99873.94;;;9.70;86.81
23170;BME280;11753;43.144;24.714;2023-04-10T05:19:27;99879.59;;;9.75;86.49
23170;BME280;11753;43.144;24.714;2023-04-10T05:20:28;99873.09;;;9.79;86.28
23170;BME280;11753;43.144;24.714;2023-04-10T05:21:29;99872.38;;;9.77;85.76
23170;BME280;11753;43.144;24.714;2023-04-10T05:22:31;99868.25;;;9.75;85.63
23170;BME280;11753;43.144;24.714;2023-04-10T05:23:33;99865.59;;;9.84;85.40
23170;BME280;11753;43.144;24.714;2023-04-10T05:24:34;99865.59;;;9.84;85.14
23170;BME280;11753;43.144;24.714;2023-04-10T05:25:38;99877.50;;;9.88;84.96
23170;BME280;11753;43.144;24.714;2023-04-10T05:26:39;99877.66;;;9.87;84.72
23170;BME280;11753;43.144;24.714;2023-04-10T05:27:42;99877.75;;;9.85;84.98
23170;BME280;11753;43.144;24.714;2023-04-10T05:28:43;99878.19;;;9.90;84.71
23170;BME280;11753;43.144;24.714;2023-04-10T05:29:44;99876.94;;;9.95;84.55
23170;BME280;11753;43.144;24.714;2023-04-10T05:30:45;99872.50;;;9.95;84.44
23170;BME280;11753;43.144;24.714;2023-04-10T05:31:46;99875.97;;;9.96;84.59
23170;BME280;11753;43.144;24.714;2023-04-10T05:32:46;99878.84;;;10.02;84.41
23170;BME280;11753;43.144;24.714;2023-04-10T05:33:47;99879.25;;;10.07;84.31
23170;BME280;11753;43.144;24.714;2023-04-10T05:34:49;99879.78;;;10.11;84.38
23170;BME280;11753;43.144;24.714;2023-04-10T05:35:51;99877.56;;;10.16;84.11
23170;BME280;11753;43.144;24.714;2023-04-10T05:36:52;99872.00;;;10.19;84.13
23170;BME280;11753;43.144;24.714;2023-04-10T05:37:53;99879.72;;;10.20;83.95
23170;BME280;11753;43.144;24.714;2023-04-10T05:38:53;99873.66;;;10.20;83.64